Wetterdaten: Mittwoch, 20.06.2012
Datum Zeit Temperatur Luftfeuchte Regen Wind Richtung Richtung Taupunkt Windchill Windben
20.06.2012 00:03 17,3 C 93 % 0,0 l/m 1,9 km/h (1 Bft) N-NO 22 16,2 C 17,3 C 2,4 km/h (1 Bft)
20.06.2012 00:08 17,2 C 93 % 0,0 l/m 1,4 km/h (1 Bft) O-SO 112 16,1 C 17,3 C 1,8 km/h (1 Bft)
20.06.2012 00:13 17,2 C 93 % 0,0 l/m 1,6 km/h (1 Bft) O 90 16,1 C 17,4 C 0,0 km/h (0 Bft)
20.06.2012 00:18 17,2 C 93 % 0,0 l/m 1,3 km/h (1 Bft) S-SO 157 16,1 C 17,4 C 0,0 km/h (0 Bft)
20.06.2012 00:23 17,1 C 93 % 0,0 l/m 0,3 km/h (0 Bft) N 360 16,0 C 17,3 C 2,1 km/h (1 Bft)
20.06.2012 00:28 17,0 C 93 % 0,0 l/m 0,2 km/h (0 Bft) S 180 15,9 C 17,1 C 0,0 km/h (0 Bft)
20.06.2012 00:33 16,9 C 93 % 0,0 l/m 0,2 km/h (0 Bft) O-SO 112 15,8 C 16,9 C 0,0 km/h (0 Bft)
20.06.2012 00:38 16,8 C 93 % 0,0 l/m 0,6 km/h (0 Bft) O 90 15,7 C 16,9 C 0,0 km/h (0 Bft)
20.06.2012 00:43 16,9 C 93 % 0,0 l/m 0,5 km/h (0 Bft) N 360 15,8 C 16,8 C 0,0 km/h (0 Bft)
20.06.2012 00:48 16,9 C 93 % 0,0 l/m 0,0 km/h (0 Bft) SO 135 15,8 C 16,7 C 0,0 km/h (0 Bft)
20.06.2012 00:53 16,9 C 93 % 0,0 l/m 0,0 km/h (0 Bft) N-NO 22 15,8 C 16,7 C 0,0 km/h (0 Bft)
20.06.2012 00:58 17,0 C 93 % 0,0 l/m 0,0 km/h (0 Bft) NO 45 15,9 C 16,8 C 0,0 km/h (0 Bft)
20.06.2012 01:03 17,0 C 93 % 0,0 l/m 0,0 km/h (0 Bft) N 360 15,9 C 16,9 C 0,0 km/h (0 Bft)
20.06.2012 01:08 17,1 C 93 % 0,0 l/m 0,0 km/h (0 Bft) O-SO 112 16,0 C 16,9 C 0,0 km/h (0 Bft)
20.06.2012 01:13 17,2 C 93 % 0,0 l/m 0,3 km/h (0 Bft) N-NO 22 16,1 C 17,0 C 3,7 km/h (1 Bft)
20.06.2012 01:18 17,3 C 93 % 0,0 l/m 0,5 km/h (0 Bft) SO 135 16,2 C 17,2 C 0,0 km/h (0 Bft)
20.06.2012 01:23 17,2 C 93 % 0,0 l/m 0,3 km/h (0 Bft) N-NW 337 16,1 C 17,2 C 0,0 km/h (0 Bft)
20.06.2012 01:28 17,2 C 93 % 0,0 l/m 0,0 km/h (0 Bft) N-NO 22 16,1 C 17,1 C 1,8 km/h (1 Bft)
20.06.2012 01:33 17,5 C 93 % 0,0 l/m 0,2 km/h (0 Bft) N-NO 22 16,4 C 17,3 C 0,0 km/h (0 Bft)
20.06.2012 01:38 17,5 C 93 % 0,0 l/m 0,2 km/h (0 Bft) N-NO 22 16,4 C 17,3 C 0,0 km/h (0 Bft)
20.06.2012 01:43 17,4 C 93 % 0,0 l/m 0,0 km/h (0 Bft) O 90 16,3 C 17,4 C 0,0 km/h (0 Bft)
20.06.2012 01:48 17,4 C 93 % 0,0 l/m 0,2 km/h (0 Bft) N-NO 22 16,3 C 17,5 C 0,0 km/h (0 Bft)
20.06.2012 01:53 17,5 C 93 % 0,0 l/m 0,2 km/h (0 Bft) N-NO 22 16,4 C 17,6 C 1,6 km/h (1 Bft)
20.06.2012 01:58 17,5 C 93 % 0,0 l/m 0,3 km/h (0 Bft) N 360 16,4 C 17,6 C 2,1 km/h (1 Bft)
20.06.2012 02:03 17,6 C 93 % 0,0 l/m 0,3 km/h (0 Bft) N-NO 22 16,5 C 17,6 C 0,0 km/h (0 Bft)
20.06.2012 02:08 17,6 C 93 % 0,0 l/m 0,5 km/h (0 Bft) N-NO 22 16,5 C 17,6 C 0,0 km/h (0 Bft)
20.06.2012 02:13 17,5 C 93 % 0,0 l/m 0,3 km/h (0 Bft) N-NO 22 16,4 C 17,5 C 0,0 km/h (0 Bft)
20.06.2012 02:18 17,4 C 93 % 0,0 l/m 0,0 km/h (0 Bft) N-NO 22 16,3 C 17,5 C 0,0 km/h (0 Bft)
20.06.2012 02:23 17,4 C 93 % 0,0 l/m 0,2 km/h (0 Bft) N-NO 22 16,3 C 17,4 C 0,0 km/h (0 Bft)
20.06.2012 02:28 17,3 C 93 % 0,0 l/m 0,2 km/h (0 Bft) N 360 16,2 C 17,3 C 0,0 km/h (0 Bft)
20.06.2012 02:33 17,2 C 93 % 0,0 l/m 0,3 km/h (0 Bft) SO 135 16,1 C 17,3 C 2,1 km/h (1 Bft)
20.06.2012 02:38 17,2 C 93 % 0,0 l/m 0,6 km/h (0 Bft) O-SO 112 16,1 C 17,2 C 2,3 km/h (1 Bft)
20.06.2012 02:43 17,0 C 93 % 0,0 l/m 0,5 km/h (0 Bft) S-SO 157 15,9 C 17,0 C 0,0 km/h (0 Bft)
20.06.2012 02:48 17,0 C 93 % 0,0 l/m 0,2 km/h (0 Bft) SO 135 15,9 C 16,9 C 0,0 km/h (0 Bft)
20.06.2012 02:53 16,9 C 93 % 0,0 l/m 0,0 km/h (0 Bft) N 360 15,8 C 16,8 C 0,0 km/h (0 Bft)
20.06.2012 02:58 16,8 C 93 % 0,0 l/m 0,0 km/h (0 Bft) N 360 15,7 C 16,7 C 0,0 km/h (0 Bft)
20.06.2012 03:03 16,8 C 93 % 0,0 l/m 0,0 km/h (0 Bft) O-SO 112 15,7 C 16,7 C 0,0 km/h (0 Bft)
20.06.2012 03:08 16,8 C 93 % 0,0 l/m 0,0 km/h (0 Bft) N-NO 22 15,7 C 16,7 C 0,0 km/h (0 Bft)
20.06.2012 03:13 16,8 C 93 % 0,0 l/m 0,0 km/h (0 Bft) NO 45 15,7 C 16,6 C 0,0 km/h (0 Bft)
20.06.2012 03:18 16,8 C 93 % 0,0 l/m 0,2 km/h (0 Bft) N-NO 22 15,7 C 16,6 C 1,8 km/h (1 Bft)
20.06.2012 03:23 16,8 C 93 % 0,0 l/m 0,8 km/h (0 Bft) N 360 15,7 C 16,7 C 2,1 km/h (1 Bft)
20.06.2012 03:28 16,9 C 93 % 0,0 l/m 1,0 km/h (0 Bft) N 360 15,8 C 16,7 C 2,4 km/h (1 Bft)
20.06.2012 03:33 17,0 C 93 % 0,0 l/m 0,5 km/h (0 Bft) N-NW 337 15,9 C 16,7 C 0,0 km/h (0 Bft)
20.06.2012 03:38 16,9 C 93 % 0,0 l/m 0,2 km/h (0 Bft) W-NW 292 15,8 C 16,7 C 0,0 km/h (0 Bft)
20.06.2012 03:43 16,7 C 93 % 0,0 l/m 0,0 km/h (0 Bft) SO 135 15,6 C 16,7 C 0,0 km/h (0 Bft)
20.06.2012 03:48 16,5 C 93 % 0,0 l/m 0,2 km/h (0 Bft) N-NO 22 15,4 C 16,5 C 0,0 km/h (0 Bft)
20.06.2012 03:53 16,4 C 93 % 0,0 l/m 0,3 km/h (0 Bft) SO 135 15,3 C 16,4 C 0,0 km/h (0 Bft)
20.06.2012 03:58 16,3 C 93 % 0,0 l/m 0,3 km/h (0 Bft) NO 45 15,2 C 16,4 C 0,0 km/h (0 Bft)
20.06.2012 04:03 16,2 C 93 % 0,0 l/m 0,2 km/h (0 Bft) N 360 15,1 C 16,2 C 0,0 km/h (0 Bft)
20.06.2012 04:08 16,1 C 93 % 0,0 l/m 0,0 km/h (0 Bft) N-NW 337 15,0 C 16,1 C 0,0 km/h (0 Bft)
20.06.2012 04:13 15,9 C 94 % 0,0 l/m 0,0 km/h (0 Bft) S 180 14,9 C 15,9 C 0,0 km/h (0 Bft)
20.06.2012 04:18 15,9 C 94 % 0,0 l/m 0,0 km/h (0 Bft) N 360 14,9 C 15,8 C 0,0 km/h (0 Bft)
20.06.2012 04:23 15,9 C 94 % 0,0 l/m 0,0 km/h (0 Bft) NO 45 14,9 C 15,7 C 0,0 km/h (0 Bft)
20.06.2012 04:28 15,8 C 94 % 0,0 l/m 0,0 km/h (0 Bft) N-NO 22 14,8 C 15,6 C 0,0 km/h (0 Bft)
20.06.2012 04:33 16,0 C 93 % 0,0 l/m 0,8 km/h (0 Bft) N 360 14,9 C 15,8 C 2,6 km/h (1 Bft)
20.06.2012 04:38 16,0 C 93 % 0,0 l/m 1,3 km/h (1 Bft) S-SW 202 14,9 C 15,9 C 1,6 km/h (1 Bft)
20.06.2012 04:43 15,8 C 94 % 0,0 l/m 1,0 km/h (0 Bft) S 180 14,8 C 15,9 C 2,1 km/h (1 Bft)
20.06.2012 04:48 15,8 C 94 % 0,0 l/m 0,5 km/h (0 Bft) N-NO 22 14,8 C 15,9 C 0,0 km/h (0 Bft)
20.06.2012 04:53 15,7 C 94 % 0,0 l/m 0,3 km/h (0 Bft) O 90 14,7 C 15,7 C 0,0 km/h (0 Bft)
20.06.2012 04:58 15,7 C 94 % 0,0 l/m 0,0 km/h (0 Bft) NW 315 14,7 C 15,6 C 0,0 km/h (0 Bft)
20.06.2012 05:03 15,8 C 94 % 0,0 l/m 0,0 km/h (0 Bft) N 360 14,8 C 15,6 C 0,0 km/h (0 Bft)
20.06.2012 05:08 15,7 C 94 % 0,0 l/m 0,0 km/h (0 Bft) NO 45 14,7 C 15,5 C 0,0 km/h (0 Bft)
20.06.2012 05:13 15,5 C 94 % 0,0 l/m 0,0 km/h (0 Bft) W-SW 247 14,5 C 15,4 C 0,0 km/h (0 Bft)
20.06.2012 05:18 15,3 C 94 % 0,0 l/m 0,0 km/h (0 Bft) N-NW 337 14,3 C 15,3 C 0,0 km/h (0 Bft)
20.06.2012 05:23 15,4 C 94 % 0,0 l/m 0,0 km/h (0 Bft) SO 135 14,4 C 15,2 C 0,0 km/h (0 Bft)
20.06.2012 05:28 15,3 C 94 % 0,0 l/m 0,0 km/h (0 Bft) W-SW 247 14,3 C 15,2 C 0,0 km/h (0 Bft)
20.06.2012 05:33 15,4 C 94 % 0,0 l/m 0,0 km/h (0 Bft) W-NW 292 14,4 C 15,2 C 0,0 km/h (0 Bft)
20.06.2012 05:38 15,5 C 94 % 0,0 l/m 0,0 km/h (0 Bft) O-SO 112 14,5 C 15,2 C 1,6 km/h (1 Bft)
20.06.2012 05:43 15,4 C 94 % 0,0 l/m 0,6 km/h (0 Bft) N-NO 22 14,4 C 15,4 C 0,0 km/h (0 Bft)
20.06.2012 05:48 15,5 C 94 % 0,0 l/m 1,0 km/h (0 Bft) O-SO 112 14,5 C 15,4 C 2,1 km/h (1 Bft)
20.06.2012 05:53 15,7 C 94 % 0,0 l/m 0,5 km/h (0 Bft) O-SO 112 14,7 C 15,8 C 0,0 km/h (0 Bft)
20.06.2012 05:58 15,9 C 94 % 0,0 l/m 0,5 km/h (0 Bft) N 360 14,9 C 16,2 C 1,6 km/h (1 Bft)
20.06.2012 06:03 16,4 C 93 % 0,0 l/m 0,5 km/h (0 Bft) NO 45 15,3 C 16,5 C 1,8 km/h (1 Bft)
20.06.2012 06:08 16,6 C 93 % 0,0 l/m 0,5 km/h (0 Bft) O-SO 112 15,5 C 16,7 C 0,0 km/h (0 Bft)
20.06.2012 06:13 17,0 C 93 % 0,0 l/m 0,6 km/h (0 Bft) NO 45 15,9 C 17,1 C 0,0 km/h (0 Bft)
20.06.2012 06:18 17,1 C 93 % 0,0 l/m 0,3 km/h (0 Bft) NO 45 16,0 C 17,3 C 0,0 km/h (0 Bft)
20.06.2012 06:23 17,6 C 93 % 0,0 l/m 0,0 km/h (0 Bft) N-NO 22 16,5 C 18,1 C 0,0 km/h (0 Bft)
20.06.2012 06:28 18,2 C 93 % 0,0 l/m 0,2 km/h (0 Bft) S-SW 202 17,0 C 18,6 C 0,0 km/h (0 Bft)
20.06.2012 06:33 18,4 C 92 % 0,0 l/m 0,2 km/h (0 Bft) N-NW 337 17,1 C 19,4 C 0,0 km/h (0 Bft)
20.06.2012 06:38 18,5 C 92 % 0,0 l/m 0,0 km/h (0 Bft) N-NO 22 17,2 C 19,9 C 0,0 km/h (0 Bft)
20.06.2012 06:43 19,8 C 92 % 0,0 l/m 0,2 km/h (0 Bft) SO 135 18,5 C 20,7 C 2,6 km/h (1 Bft)
20.06.2012 06:48 19,7 C 91 % 0,0 l/m 0,3 km/h (0 Bft) N 360 18,2 C 21,0 C 0,0 km/h (0 Bft)
20.06.2012 06:53 19,9 C 90 % 0,0 l/m 0,3 km/h (0 Bft) N 360 18,2 C 21,7 C 0,0 km/h (0 Bft)
20.06.2012 06:58 20,1 C 89 % 0,0 l/m 0,0 km/h (0 Bft) S-SW 202 18,2 C 22,1 C 0,0 km/h (0 Bft)
20.06.2012 07:03 20,4 C 87 % 0,0 l/m 0,0 km/h (0 Bft) S 180 18,2 C 22,7 C 0,0 km/h (0 Bft)
20.06.2012 07:08 20,8 C 87 % 0,0 l/m 0,0 km/h (0 Bft) W 270 18,6 C 23,3 C 0,0 km/h (0 Bft)
20.06.2012 07:13 21,5 C 86 % 0,0 l/m 0,0 km/h (0 Bft) S 180 19,1 C 24,0 C 0,0 km/h (0 Bft)
20.06.2012 07:18 22,0 C 86 % 0,0 l/m 0,2 km/h (0 Bft) O-SO 112 19,5 C 24,4 C 0,0 km/h (0 Bft)
20.06.2012 07:23 22,4 C 83 % 0,0 l/m 1,3 km/h (1 Bft) SW 225 19,4 C 24,5 C 4,3 km/h (1 Bft)
20.06.2012 07:28 22,5 C 81 % 0,0 l/m 2,4 km/h (1 Bft) O-SO 112 19,1 C 24,4 C 3,1 km/h (1 Bft)
20.06.2012 07:33 23,3 C 80 % 0,0 l/m 2,4 km/h (1 Bft) S-SO 157 19,6 C 24,5 C 3,1 km/h (1 Bft)
20.06.2012 07:38 23,3 C 80 % 0,0 l/m 1,8 km/h (1 Bft) SO 135 19,6 C 25,0 C 0,0 km/h (0 Bft)
20.06.2012 07:43 23,6 C 75 % 0,0 l/m 2,1 km/h (1 Bft) SO 135 18,9 C 25,7 C 2,4 km/h (1 Bft)
20.06.2012 07:48 23,4 C 76 % 0,0 l/m 2,7 km/h (1 Bft) N 360 18,9 C 25,9 C 4,7 km/h (1 Bft)
20.06.2012 07:53 23,5 C 77 % 0,0 l/m 2,7 km/h (1 Bft) S 180 19,2 C 25,7 C 3,2 km/h (1 Bft)
20.06.2012 07:58 23,2 C 77 % 0,0 l/m 2,9 km/h (1 Bft) S-SO 157 18,9 C 25,5 C 4,5 km/h (1 Bft)
20.06.2012 08:05 23,2 C 77 % 0,0 l/m 2,9 km/h (1 Bft) S-SO 157 18,9 C 25,5 C 4,5 km/h (1 Bft)
20.06.2012 08:10 22,3 C 81 % 0,0 l/m 3,4 km/h (1 Bft) O-SO 112 18,9 C 24,5 C 5,1 km/h (1 Bft)
20.06.2012 08:15 21,8 C 80 % 0,0 l/m 3,7 km/h (1 Bft) SO 135 18,2 C 23,8 C 4,7 km/h (1 Bft)
20.06.2012 08:20 21,3 C 83 % 0,0 l/m 4,0 km/h (1 Bft) S-SW 202 18,3 C 22,9 C 2,9 km/h (1 Bft)
20.06.2012 08:25 21,3 C 83 % 0,0 l/m 3,7 km/h (1 Bft) SO 135 18,3 C 22,5 C 3,5 km/h (1 Bft)
20.06.2012 08:30 21,5 C 84 % 0,0 l/m 3,9 km/h (1 Bft) SO 135 18,7 C 22,4 C 10,6 km/h (2 Bft)
20.06.2012 08:35 22,6 C 82 % 0,0 l/m 3,9 km/h (1 Bft) SO 135 19,4 C 22,9 C 0,0 km/h (0 Bft)
20.06.2012 08:40 22,5 C 82 % 0,0 l/m 2,7 km/h (1 Bft) O-SO 112 19,3 C 24,0 C 7,2 km/h (2 Bft)
20.06.2012 08:45 22,7 C 81 % 0,0 l/m 2,7 km/h (1 Bft) S 180 19,3 C 24,3 C 3,2 km/h (1 Bft)
20.06.2012 08:50 23,6 C 78 % 0,0 l/m 4,0 km/h (1 Bft) O-SO 112 19,5 C 25,5 C 6,1 km/h (2 Bft)
20.06.2012 08:55 22,6 C 79 % 0,0 l/m 4,8 km/h (1 Bft) O-SO 112 18,8 C 24,7 C 6,1 km/h (2 Bft)
20.06.2012 09:00 21,8 C 81 % 0,0 l/m 5,6 km/h (1 Bft) SO 135 18,4 C 23,6 C 11,6 km/h (2 Bft)
20.06.2012 09:05 21,7 C 82 % 0,0 l/m 5,5 km/h (1 Bft) SO 135 18,5 C 23,2 C 10,8 km/h (2 Bft)
20.06.2012 09:10 21,6 C 82 % 0,0 l/m 5,0 km/h (1 Bft) SO 135 18,4 C 22,8 C 6,9 km/h (2 Bft)
20.06.2012 09:13 22,3 C 79 % 0,0 l/m 5,6 km/h (1 Bft) SO 135 18,5 C 23,3 C 7,2 km/h (2 Bft)
20.06.2012 09:18 22,3 C 81 % 0,0 l/m 5,1 km/h (1 Bft) SO 135 18,9 C 23,3 C 3,9 km/h (1 Bft)
20.06.2012 09:23 21,7 C 82 % 0,0 l/m 4,8 km/h (1 Bft) S-SO 157 18,5 C 23,0 C 5,0 km/h (1 Bft)
20.06.2012 09:28 22,0 C 81 % 0,0 l/m 4,3 km/h (1 Bft) S-SO 157 18,6 C 22,8 C 5,1 km/h (1 Bft)
20.06.2012 09:33 22,3 C 82 % 0,0 l/m 3,5 km/h (1 Bft) S-SO 157 19,1 C 23,1 C 5,1 km/h (1 Bft)
20.06.2012 09:38 22,2 C 82 % 0,0 l/m 3,1 km/h (1 Bft) SO 135 19,0 C 23,3 C 2,9 km/h (1 Bft)
20.06.2012 09:43 23,4 C 76 % 0,0 l/m 3,9 km/h (1 Bft) SO 135 18,9 C 24,1 C 7,6 km/h (2 Bft)
20.06.2012 09:48 24,1 C 75 % 0,0 l/m 4,8 km/h (1 Bft) SO 135 19,4 C 24,9 C 8,2 km/h (2 Bft)
20.06.2012 09:53 23,0 C 76 % 0,0 l/m 5,6 km/h (1 Bft) SO 135 18,5 C 25,0 C 3,7 km/h (1 Bft)
20.06.2012 09:58 23,2 C 77 % 0,0 l/m 6,0 km/h (2 Bft) S 180 18,9 C 24,7 C 2,9 km/h (1 Bft)
20.06.2012 10:03 23,6 C 78 % 0,0 l/m 5,1 km/h (1 Bft) SO 135 19,5 C 24,8 C 6,6 km/h (2 Bft)
20.06.2012 10:08 22,9 C 76 % 0,0 l/m 4,7 km/h (1 Bft) SO 135 18,4 C 24,6 C 4,7 km/h (1 Bft)
20.06.2012 10:13 22,7 C 77 % 0,0 l/m 4,3 km/h (1 Bft) O-SO 112 18,5 C 23,9 C 3,9 km/h (1 Bft)
20.06.2012 10:18 22,7 C 76 % 0,0 l/m 4,2 km/h (1 Bft) S 180 18,2 C 23,8 C 7,4 km/h (2 Bft)
20.06.2012 10:23 22,0 C 78 % 0,0 l/m 4,7 km/h (1 Bft) SO 135 18,0 C 23,1 C 4,2 km/h (1 Bft)
20.06.2012 10:28 22,0 C 78 % 0,0 l/m 4,3 km/h (1 Bft) SO 135 18,0 C 23,0 C 4,5 km/h (1 Bft)
20.06.2012 10:33 22,2 C 79 % 0,0 l/m 3,1 km/h (1 Bft) W-SW 247 18,4 C 22,9 C 1,8 km/h (1 Bft)
20.06.2012 10:38 22,2 C 79 % 0,0 l/m 3,1 km/h (1 Bft) W 270 18,4 C 23,0 C 2,4 km/h (1 Bft)
20.06.2012 10:43 21,9 C 78 % 0,0 l/m 2,7 km/h (1 Bft) SO 135 17,9 C 23,0 C 5,3 km/h (1 Bft)
20.06.2012 10:48 22,1 C 78 % 0,0 l/m 2,1 km/h (1 Bft) W-SW 247 18,1 C 23,2 C 0,0 km/h (0 Bft)
20.06.2012 10:53 22,5 C 77 % 0,0 l/m 1,8 km/h (1 Bft) S 180 18,3 C 23,6 C 2,3 km/h (1 Bft)
20.06.2012 10:58 23,2 C 75 % 0,0 l/m 2,3 km/h (1 Bft) W 270 18,5 C 24,5 C 6,4 km/h (2 Bft)
20.06.2012 11:03 23,6 C 71 % 0,0 l/m 3,5 km/h (1 Bft) SO 135 18,0 C 25,2 C 3,9 km/h (1 Bft)
20.06.2012 11:08 23,2 C 71 % 0,0 l/m 3,4 km/h (1 Bft) S 180 17,6 C 25,5 C 1,6 km/h (1 Bft)
20.06.2012 11:13 24,1 C 69 % 0,0 l/m 2,1 km/h (1 Bft) O 90 18,0 C 26,3 C 2,7 km/h (1 Bft)
20.06.2012 11:18 23,8 C 69 % 0,0 l/m 2,1 km/h (1 Bft) S 180 17,8 C 26,3 C 0,0 km/h (0 Bft)
20.06.2012 11:23 23,6 C 70 % 0,0 l/m 2,6 km/h (1 Bft) S 180 17,8 C 26,0 C 2,7 km/h (1 Bft)
20.06.2012 11:28 24,0 C 69 % 0,0 l/m 2,1 km/h (1 Bft) S-SW 202 18,0 C 26,0 C 3,2 km/h (1 Bft)
20.06.2012 11:33 25,8 C 66 % 0,0 l/m 1,6 km/h (1 Bft) S 180 19,0 C 27,5 C 3,4 km/h (1 Bft)
20.06.2012 11:38 26,0 C 64 % 0,0 l/m 2,1 km/h (1 Bft) W-SW 247 18,6 C 28,5 C 0,0 km/h (0 Bft)
20.06.2012 11:43 24,5 C 64 % 0,0 l/m 2,4 km/h (1 Bft) SO 135 17,2 C 28,3 C 3,1 km/h (1 Bft)
20.06.2012 11:48 24,5 C 66 % 0,0 l/m 1,4 km/h (1 Bft) S 180 17,7 C 27,7 C 0,0 km/h (0 Bft)
20.06.2012 11:53 23,5 C 68 % 0,0 l/m 2,4 km/h (1 Bft) S-SW 202 17,2 C 26,4 C 2,4 km/h (1 Bft)
20.06.2012 11:58 23,2 C 68 % 0,0 l/m 3,1 km/h (1 Bft) W-SW 247 17,0 C 25,6 C 4,3 km/h (1 Bft)
20.06.2012 12:03 22,5 C 73 % 0,0 l/m 3,4 km/h (1 Bft) S-SW 202 17,4 C 24,6 C 3,9 km/h (1 Bft)
20.06.2012 12:08 22,5 C 73 % 0,0 l/m 3,9 km/h (1 Bft) W-SW 247 17,4 C 24,1 C 4,0 km/h (1 Bft)
20.06.2012 12:13 23,7 C 71 % 0,0 l/m 3,9 km/h (1 Bft) SW 225 18,1 C 24,2 C 6,1 km/h (2 Bft)
20.06.2012 12:18 24,5 C 68 % 0,0 l/m 4,5 km/h (1 Bft) S 180 18,2 C 25,3 C 8,4 km/h (2 Bft)
20.06.2012 12:23 23,7 C 70 % 0,0 l/m 6,0 km/h (2 Bft) N-NW 337 17,9 C 25,4 C 4,2 km/h (1 Bft)
20.06.2012 12:28 23,4 C 70 % 0,0 l/m 5,1 km/h (1 Bft) W-SW 247 17,6 C 25,4 C 7,7 km/h (2 Bft)
20.06.2012 12:33 23,6 C 69 % 0,0 l/m 3,9 km/h (1 Bft) SW 225 17,6 C 25,2 C 2,9 km/h (1 Bft)
20.06.2012 12:38 23,7 C 70 % 0,0 l/m 5,1 km/h (1 Bft) S-SW 202 17,9 C 25,2 C 9,7 km/h (2 Bft)
20.06.2012 12:43 24,1 C 67 % 0,0 l/m 5,6 km/h (1 Bft) W 270 17,6 C 25,3 C 4,2 km/h (1 Bft)
20.06.2012 12:48 23,5 C 69 % 0,0 l/m 5,6 km/h (1 Bft) S-SW 202 17,5 C 25,4 C 6,4 km/h (2 Bft)
20.06.2012 12:53 24,9 C 66 % 0,0 l/m 4,5 km/h (1 Bft) S-SO 157 18,1 C 25,8 C 4,2 km/h (1 Bft)
20.06.2012 12:58 25,3 C 65 % 0,0 l/m 5,0 km/h (1 Bft) S-SW 202 18,2 C 26,4 C 6,0 km/h (2 Bft)
20.06.2012 13:03 25,5 C 65 % 0,0 l/m 4,5 km/h (1 Bft) W 270 18,4 C 26,5 C 4,8 km/h (1 Bft)
20.06.2012 13:08 25,0 C 65 % 0,0 l/m 3,9 km/h (1 Bft) W-SW 247 17,9 C 26,5 C 6,1 km/h (2 Bft)
20.06.2012 13:13 24,6 C 67 % 0,0 l/m 3,5 km/h (1 Bft) S-SW 202 18,1 C 26,0 C 3,7 km/h (1 Bft)
20.06.2012 13:18 24,3 C 66 % 0,0 l/m 4,0 km/h (1 Bft) S-SO 157 17,5 C 25,4 C 3,2 km/h (1 Bft)
20.06.2012 13:23 23,6 C 69 % 0,0 l/m 3,2 km/h (1 Bft) S 180 17,6 C 24,9 C 2,3 km/h (1 Bft)
20.06.2012 13:28 23,2 C 69 % 0,0 l/m 3,1 km/h (1 Bft) S 180 17,2 C 24,5 C 5,6 km/h (1 Bft)
20.06.2012 13:33 23,1 C 70 % 0,0 l/m 3,2 km/h (1 Bft) SO 135 17,3 C 23,9 C 2,9 km/h (1 Bft)
20.06.2012 13:38 23,1 C 70 % 0,0 l/m 3,1 km/h (1 Bft) S 180 17,3 C 23,7 C 6,4 km/h (2 Bft)
20.06.2012 13:43 23,0 C 71 % 0,0 l/m 2,7 km/h (1 Bft) W 270 17,4 C 23,4 C 4,0 km/h (1 Bft)
20.06.2012 13:48 22,6 C 73 % 0,0 l/m 2,4 km/h (1 Bft) W 270 17,5 C 23,2 C 1,8 km/h (1 Bft)
20.06.2012 13:53 22,3 C 74 % 0,0 l/m 2,3 km/h (1 Bft) S 180 17,4 C 22,8 C 3,4 km/h (1 Bft)
20.06.2012 13:58 22,3 C 74 % 0,0 l/m 2,4 km/h (1 Bft) S 180 17,4 C 22,5 C 1,9 km/h (1 Bft)
20.06.2012 14:03 21,9 C 75 % 0,0 l/m 2,4 km/h (1 Bft) S-SW 202 17,3 C 22,3 C 1,8 km/h (1 Bft)
20.06.2012 14:08 21,9 C 75 % 0,0 l/m 2,3 km/h (1 Bft) S 180 17,3 C 22,1 C 3,7 km/h (1 Bft)
20.06.2012 14:13 21,9 C 75 % 0,0 l/m 1,9 km/h (1 Bft) S 180 17,3 C 22,1 C 2,6 km/h (1 Bft)
20.06.2012 14:18 21,9 C 75 % 0,0 l/m 1,9 km/h (1 Bft) S-SO 157 17,3 C 22,1 C 2,1 km/h (1 Bft)
20.06.2012 14:23 21,4 C 75 % 0,0 l/m 2,3 km/h (1 Bft) SO 135 16,8 C 21,9 C 4,2 km/h (1 Bft)
20.06.2012 14:28 21,3 C 75 % 0,0 l/m 2,6 km/h (1 Bft) SO 135 16,7 C 21,7 C 3,5 km/h (1 Bft)
20.06.2012 14:33 21,0 C 75 % 0,0 l/m 3,2 km/h (1 Bft) O 90 16,4 C 21,4 C 2,4 km/h (1 Bft)
20.06.2012 14:38 21,0 C 76 % 0,0 l/m 3,5 km/h (1 Bft) O 90 16,6 C 21,2 C 3,4 km/h (1 Bft)
20.06.2012 14:43 20,7 C 77 % 0,0 l/m 2,4 km/h (1 Bft) S 180 16,5 C 21,0 C 3,4 km/h (1 Bft)
20.06.2012 14:48 20,8 C 78 % 0,0 l/m 2,3 km/h (1 Bft) O-SO 112 16,8 C 20,6 C 2,1 km/h (1 Bft)
20.06.2012 14:53 20,8 C 79 % 0,0 l/m 1,9 km/h (1 Bft) NO 45 17,0 C 20,6 C 4,0 km/h (1 Bft)
20.06.2012 14:58 20,8 C 79 % 0,0 l/m 1,3 km/h (1 Bft) N-NO 22 17,0 C 20,8 C 0,0 km/h (0 Bft)
20.06.2012 15:03 21,9 C 78 % 0,0 l/m 1,3 km/h (1 Bft) O-SO 112 17,9 C 21,6 C 3,7 km/h (1 Bft)
20.06.2012 15:08 22,4 C 77 % 0,0 l/m 1,0 km/h (0 Bft) N-NO 22 18,2 C 22,3 C 0,0 km/h (0 Bft)
20.06.2012 15:13 22,8 C 76 % 0,0 l/m 2,1 km/h (1 Bft) SO 135 18,3 C 23,0 C 3,7 km/h (1 Bft)
20.06.2012 15:18 22,7 C 76 % 0,0 l/m 2,3 km/h (1 Bft) O 90 18,2 C 23,0 C 0,0 km/h (0 Bft)
20.06.2012 15:23 22,1 C 75 % 0,0 l/m 2,6 km/h (1 Bft) S-SO 157 17,5 C 22,8 C 2,1 km/h (1 Bft)
20.06.2012 15:28 21,8 C 75 % 0,0 l/m 2,4 km/h (1 Bft) SO 135 17,2 C 22,5 C 2,9 km/h (1 Bft)
20.06.2012 15:33 21,3 C 76 % 0,0 l/m 3,1 km/h (1 Bft) S-SO 157 16,9 C 21,9 C 2,4 km/h (1 Bft)
20.06.2012 15:38 21,2 C 76 % 0,0 l/m 3,4 km/h (1 Bft) O-SO 112 16,8 C 21,5 C 5,1 km/h (1 Bft)
20.06.2012 15:43 20,6 C 78 % 0,0 l/m 2,6 km/h (1 Bft) O-SO 112 16,6 C 20,9 C 3,2 km/h (1 Bft)
20.06.2012 15:48 20,5 C 78 % 0,0 l/m 2,3 km/h (1 Bft) O-SO 112 16,5 C 20,7 C 5,8 km/h (2 Bft)
20.06.2012 15:53 20,4 C 79 % 0,0 l/m 2,4 km/h (1 Bft) SO 135 16,6 C 20,3 C 2,3 km/h (1 Bft)
20.06.2012 15:58 20,4 C 79 % 0,0 l/m 2,7 km/h (1 Bft) O-SO 112 16,6 C 20,1 C 2,9 km/h (1 Bft)
20.06.2012 16:03 20,2 C 80 % 0,0 l/m 2,3 km/h (1 Bft) S-SO 157 16,6 C 19,9 C 0,0 km/h (0 Bft)
20.06.2012 16:08 20,1 C 80 % 0,0 l/m 2,1 km/h (1 Bft) O 90 16,5 C 19,9 C 6,9 km/h (2 Bft)
20.06.2012 16:13 19,9 C 81 % 0,0 l/m 3,9 km/h (1 Bft) SO 135 16,5 C 19,7 C 8,7 km/h (2 Bft)
20.06.2012 16:18 19,5 C 82 % 0,0 l/m 8,4 km/h (2 Bft) S 180 16,3 C 18,2 C 25,9 km/h (4 Bft)
20.06.2012 16:23 16,7 C 86 % 5,5 l/m 15,6 km/h (3 Bft) O-SO 112 14,3 C 13,2 C 22,4 km/h (4 Bft)
20.06.2012 16:28 16,2 C 87 % 2,1 l/m 15,4 km/h (3 Bft) S 180 14,0 C 11,9 C 12,6 km/h (3 Bft)
20.06.2012 16:33 16,3 C 89 % 0,0 l/m 9,5 km/h (2 Bft) SO 135 14,5 C 14,2 C 7,9 km/h (2 Bft)
20.06.2012 16:38 16,3 C 89 % 0,0 l/m 8,2 km/h (2 Bft) SO 135 14,5 C 15,1 C 16,4 km/h (3 Bft)
20.06.2012 16:43 16,2 C 89 % 0,7 l/m 9,8 km/h (2 Bft) SO 135 14,4 C 14,0 C 10,6 km/h (2 Bft)
20.06.2012 16:48 16,1 C 90 % 0,0 l/m 10,6 km/h (2 Bft) O-SO 112 14,5 C 13,5 C 6,0 km/h (2 Bft)
20.06.2012 16:53 16,1 C 90 % 0,0 l/m 9,0 km/h (2 Bft) S 180 14,5 C 14,6 C 10,1 km/h (2 Bft)
20.06.2012 16:58 16,1 C 90 % 0,0 l/m 6,3 km/h (2 Bft) SO 135 14,5 C 16,0 C 5,1 km/h (1 Bft)
20.06.2012 17:03 16,0 C 90 % 0,7 l/m 5,5 km/h (1 Bft) SO 135 14,4 C 15,9 C 7,2 km/h (2 Bft)
20.06.2012 17:08 15,8 C 91 % 0,0 l/m 5,6 km/h (1 Bft) S-SO 157 14,3 C 15,7 C 4,0 km/h (1 Bft)
20.06.2012 17:13 15,6 C 91 % 0,0 l/m 6,0 km/h (2 Bft) N 360 14,1 C 15,5 C 6,0 km/h (2 Bft)
20.06.2012 17:18 15,5 C 91 % 0,0 l/m 4,3 km/h (1 Bft) O-SO 112 14,0 C 15,4 C 2,4 km/h (1 Bft)
20.06.2012 17:23 15,5 C 92 % 0,0 l/m 1,4 km/h (1 Bft) O 90 14,2 C 15,4 C 2,6 km/h (1 Bft)
20.06.2012 17:28 15,4 C 92 % 0,0 l/m 0,6 km/h (0 Bft) O-NO 67 14,1 C 15,3 C 2,9 km/h (1 Bft)
20.06.2012 17:33 15,4 C 92 % 0,7 l/m 0,6 km/h (0 Bft) N 360 14,1 C 15,3 C 0,0 km/h (0 Bft)
20.06.2012 17:38 15,4 C 92 % 0,0 l/m 0,6 km/h (0 Bft) N 360 14,1 C 15,2 C 0,0 km/h (0 Bft)
20.06.2012 17:43 15,4 C 92 % 0,0 l/m 0,8 km/h (0 Bft) N-NO 22 14,1 C 15,2 C 0,0 km/h (0 Bft)
20.06.2012 17:48 15,5 C 92 % 0,0 l/m 0,6 km/h (0 Bft) N 360 14,2 C 15,3 C 0,0 km/h (0 Bft)
20.06.2012 17:53 15,6 C 92 % 0,0 l/m 0,6 km/h (0 Bft) N 360 14,3 C 15,4 C 0,0 km/h (0 Bft)
20.06.2012 17:58 15,6 C 92 % 0,0 l/m 1,1 km/h (1 Bft) N-NW 337 14,3 C 15,5 C 3,1 km/h (1 Bft)
20.06.2012 18:03 15,8 C 93 % 0,0 l/m 1,6 km/h (1 Bft) N-NW 337 14,7 C 15,6 C 0,0 km/h (0 Bft)
20.06.2012 18:08 15,9 C 93 % 0,0 l/m 1,4 km/h (1 Bft) N 360 14,8 C 15,9 C 0,0 km/h (0 Bft)
20.06.2012 18:13 16,0 C 91 % 0,0 l/m 0,2 km/h (0 Bft) N-NW 337 14,5 C 16,2 C 0,0 km/h (0 Bft)
20.06.2012 18:18 16,1 C 91 % 0,0 l/m 0,0 km/h (0 Bft) N 360 14,6 C 16,3 C 0,0 km/h (0 Bft)
20.06.2012 18:23 16,2 C 91 % 0,0 l/m 0,8 km/h (0 Bft) N-NW 337 14,7 C 16,7 C 2,6 km/h (1 Bft)
20.06.2012 18:28 16,5 C 91 % 0,0 l/m 1,6 km/h (1 Bft) N-NW 337 15,0 C 16,9 C 3,1 km/h (1 Bft)
20.06.2012 18:33 16,8 C 91 % 0,0 l/m 2,6 km/h (1 Bft) N-NW 337 15,3 C 18,3 C 4,8 km/h (1 Bft)
20.06.2012 18:38 16,9 C 90 % 0,0 l/m 2,6 km/h (1 Bft) W-SW 247 15,2 C 19,3 C 5,8 km/h (2 Bft)
20.06.2012 18:43 17,5 C 90 % 0,0 l/m 2,6 km/h (1 Bft) N-NW 337 15,8 C 20,1 C 0,0 km/h (0 Bft)
20.06.2012 18:48 17,6 C 90 % 0,0 l/m 1,6 km/h (1 Bft) N 360 15,9 C 20,6 C 3,4 km/h (1 Bft)
20.06.2012 18:53 17,9 C 90 % 0,0 l/m 1,0 km/h (0 Bft) W 270 16,2 C 20,9 C 2,4 km/h (1 Bft)
20.06.2012 18:58 17,6 C 89 % 0,0 l/m 2,1 km/h (1 Bft) N-NO 22 15,8 C 21,0 C 3,2 km/h (1 Bft)
20.06.2012 19:03 17,9 C 89 % 0,0 l/m 1,4 km/h (1 Bft) NW 315 16,1 C 21,3 C 0,0 km/h (0 Bft)
20.06.2012 19:08 17,9 C 89 % 0,0 l/m 0,8 km/h (0 Bft) N-NW 337 16,1 C 21,1 C 5,5 km/h (1 Bft)
20.06.2012 19:13 17,4 C 87 % 0,0 l/m 1,9 km/h (1 Bft) N-NW 337 15,2 C 20,2 C 2,6 km/h (1 Bft)
20.06.2012 19:18 17,6 C 88 % 0,0 l/m 2,6 km/h (1 Bft) N-NW 337 15,6 C 20,0 C 2,7 km/h (1 Bft)
20.06.2012 19:23 17,9 C 88 % 0,0 l/m 2,3 km/h (1 Bft) W-NW 292 15,9 C 20,1 C 4,5 km/h (1 Bft)
20.06.2012 19:28 17,9 C 88 % 0,0 l/m 2,3 km/h (1 Bft) S-SW 202 15,9 C 20,0 C 1,8 km/h (1 Bft)
20.06.2012 19:33 17,6 C 88 % 0,0 l/m 1,1 km/h (1 Bft) O 90 15,6 C 19,9 C 0,0 km/h (0 Bft)
20.06.2012 19:38 17,5 C 88 % 0,0 l/m 0,2 km/h (0 Bft) NO 45 15,5 C 19,8 C 0,0 km/h (0 Bft)
20.06.2012 19:43 17,5 C 89 % 0,0 l/m 0,0 km/h (0 Bft) NO 45 15,7 C 19,7 C 0,0 km/h (0 Bft)
20.06.2012 19:48 17,4 C 89 % 0,0 l/m 0,0 km/h (0 Bft) NO 45 15,6 C 19,7 C 0,0 km/h (0 Bft)
20.06.2012 19:53 17,5 C 89 % 0,0 l/m 0,0 km/h (0 Bft) N 360 15,7 C 19,5 C 0,0 km/h (0 Bft)
20.06.2012 19:58 17,3 C 89 % 0,0 l/m 0,0 km/h (0 Bft) N-NO 22 15,5 C 19,3 C 0,0 km/h (0 Bft)
20.06.2012 20:03 16,9 C 90 % 0,0 l/m 0,0 km/h (0 Bft) N-NO 22 15,2 C 18,5 C 0,0 km/h (0 Bft)
20.06.2012 20:08 16,8 C 90 % 0,0 l/m 0,0 km/h (0 Bft) O 90 15,1 C 18,0 C 0,0 km/h (0 Bft)
20.06.2012 20:13 16,7 C 90 % 0,0 l/m 0,0 km/h (0 Bft) O 90 15,0 C 17,5 C 0,0 km/h (0 Bft)
20.06.2012 20:18 16,7 C 90 % 0,0 l/m 0,0 km/h (0 Bft) S-SO 157 15,0 C 17,3 C 0,0 km/h (0 Bft)
20.06.2012 20:23 16,7 C 90 % 0,0 l/m 0,0 km/h (0 Bft) NO 45 15,0 C 17,2 C 0,0 km/h (0 Bft)
20.06.2012 20:28 16,7 C 90 % 0,0 l/m 0,0 km/h (0 Bft) N-NO 22 15,0 C 17,1 C 0,0 km/h (0 Bft)
20.06.2012 20:33 16,6 C 90 % 0,0 l/m 0,0 km/h (0 Bft) NW 315 15,0 C 17,4 C 0,0 km/h (0 Bft)
20.06.2012 20:38 16,5 C 90 % 0,0 l/m 0,2 km/h (0 Bft) NO 45 14,9 C 17,4 C 0,0 km/h (0 Bft)
20.06.2012 20:43 16,2 C 90 % 0,0 l/m 0,2 km/h (0 Bft) N 360 14,6 C 17,0 C 0,0 km/h (0 Bft)
20.06.2012 20:48 16,1 C 90 % 0,0 l/m 0,3 km/h (0 Bft) NO 45 14,5 C 16,7 C 2,1 km/h (1 Bft)
20.06.2012 20:53 16,0 C 91 % 0,0 l/m 0,2 km/h (0 Bft) N-NO 22 14,5 C 16,3 C 0,0 km/h (0 Bft)
20.06.2012 20:58 15,9 C 92 % 0,0 l/m 0,2 km/h (0 Bft) O-SO 112 14,6 C 16,1 C 0,0 km/h (0 Bft)
20.06.2012 21:03 15,8 C 92 % 0,0 l/m 0,5 km/h (0 Bft) SO 135 14,5 C 16,0 C 0,0 km/h (0 Bft)
20.06.2012 21:08 15,7 C 92 % 0,0 l/m 0,5 km/h (0 Bft) O-NO 67 14,4 C 15,9 C 0,0 km/h (0 Bft)
20.06.2012 21:13 15,6 C 92 % 0,0 l/m 0,3 km/h (0 Bft) N-NO 22 14,3 C 15,7 C 0,0 km/h (0 Bft)
20.06.2012 21:18 15,6 C 92 % 0,0 l/m 0,2 km/h (0 Bft) SO 135 14,3 C 15,6 C 0,0 km/h (0 Bft)
20.06.2012 21:23 15,5 C 93 % 0,0 l/m 0,0 km/h (0 Bft) NO 45 14,4 C 15,4 C 0,0 km/h (0 Bft)
20.06.2012 21:28 15,4 C 93 % 0,0 l/m 0,0 km/h (0 Bft) N-NO 22 14,3 C 15,4 C 0,0 km/h (0 Bft)
20.06.2012 21:33 15,4 C 93 % 0,0 l/m 0,0 km/h (0 Bft) N 360 14,3 C 15,2 C 0,0 km/h (0 Bft)
20.06.2012 21:38 15,4 C 93 % 0,0 l/m 0,0 km/h (0 Bft) N-NO 22 14,3 C 15,2 C 0,0 km/h (0 Bft)
20.06.2012 21:43 15,3 C 93 % 0,0 l/m 0,0 km/h (0 Bft) O 90 14,2 C 15,2 C 0,0 km/h (0 Bft)
20.06.2012 21:48 15,3 C 93 % 0,0 l/m 0,0 km/h (0 Bft) N-NO 22 14,2 C 15,2 C 0,0 km/h (0 Bft)
20.06.2012 21:53 15,3 C 93 % 0,0 l/m 0,3 km/h (0 Bft) S-SO 157 14,2 C 15,2 C 1,8 km/h (1 Bft)
20.06.2012 21:58 15,3 C 93 % 0,0 l/m 0,5 km/h (0 Bft) N 360 14,2 C 15,2 C 0,0 km/h (0 Bft)
20.06.2012 22:03 15,3 C 93 % 0,0 l/m 0,3 km/h (0 Bft) SO 135 14,2 C 15,2 C 0,0 km/h (0 Bft)
20.06.2012 22:08 15,3 C 93 % 0,0 l/m 0,2 km/h (0 Bft) S-SO 157 14,2 C 15,2 C 0,0 km/h (0 Bft)
20.06.2012 22:13 15,3 C 93 % 0,0 l/m 0,0 km/h (0 Bft) S 180 14,2 C 15,2 C 0,0 km/h (0 Bft)
20.06.2012 22:18 15,3 C 93 % 0,0 l/m 0,3 km/h (0 Bft) SO 135 14,2 C 15,2 C 0,0 km/h (0 Bft)
20.06.2012 22:23 15,3 C 93 % 0,0 l/m 0,3 km/h (0 Bft) S-SW 202 14,2 C 15,2 C 0,0 km/h (0 Bft)
20.06.2012 22:28 15,3 C 93 % 0,0 l/m 0,2 km/h (0 Bft) O-SO 112 14,2 C 15,2 C 0,0 km/h (0 Bft)
20.06.2012 22:33 15,3 C 93 % 0,0 l/m 0,3 km/h (0 Bft) O 90 14,2 C 15,2 C 1,9 km/h (1 Bft)
20.06.2012 22:38 15,3 C 93 % 0,0 l/m 0,5 km/h (0 Bft) SO 135 14,2 C 15,2 C 1,9 km/h (1 Bft)
20.06.2012 22:43 15,2 C 94 % 0,0 l/m 0,6 km/h (0 Bft) O 90 14,2 C 15,2 C 0,0 km/h (0 Bft)
20.06.2012 22:48 15,2 C 94 % 0,0 l/m 0,3 km/h (0 Bft) N-NO 22 14,2 C 15,2 C 0,0 km/h (0 Bft)
20.06.2012 22:53 15,2 C 94 % 0,0 l/m 0,2 km/h (0 Bft) N-NO 22 14,2 C 15,1 C 0,0 km/h (0 Bft)
20.06.2012 22:58 15,2 C 94 % 0,0 l/m 0,2 km/h (0 Bft) N 360 14,2 C 15,1 C 0,0 km/h (0 Bft)
20.06.2012 23:03 15,2 C 94 % 0,0 l/m 0,2 km/h (0 Bft) N-NO 22 14,2 C 15,1 C 0,0 km/h (0 Bft)
20.06.2012 23:08 15,1 C 94 % 0,0 l/m 0,3 km/h (0 Bft) S 180 14,1 C 15,2 C 2,1 km/h (1 Bft)
20.06.2012 23:13 15,2 C 94 % 0,0 l/m 0,3 km/h (0 Bft) W 270 14,2 C 15,2 C 0,0 km/h (0 Bft)
20.06.2012 23:18 15,2 C 94 % 0,0 l/m 0,2 km/h (0 Bft) N-NW 337 14,2 C 15,2 C 0,0 km/h (0 Bft)
20.06.2012 23:23 15,2 C 94 % 0,0 l/m 0,3 km/h (0 Bft) N 360 14,2 C 15,2 C 0,0 km/h (0 Bft)
20.06.2012 23:28 15,2 C 94 % 0,0 l/m 0,3 km/h (0 Bft) W-SW 247 14,2 C 15,2 C 0,0 km/h (0 Bft)
20.06.2012 23:33 15,1 C 94 % 0,0 l/m 0,0 km/h (0 Bft) N-NO 22 14,1 C 15,2 C 0,0 km/h (0 Bft)
20.06.2012 23:38 15,1 C 94 % 0,0 l/m 0,3 km/h (0 Bft) N-NO 22 14,1 C 15,1 C 0,0 km/h (0 Bft)
20.06.2012 23:43 15,1 C 94 % 0,0 l/m 0,5 km/h (0 Bft) NO 45 14,1 C 15,1 C 0,0 km/h (0 Bft)
20.06.2012 23:48 15,1 C 94 % 0,0 l/m 0,5 km/h (0 Bft) N 360 14,1 C 15,2 C 1,9 km/h (1 Bft)
20.06.2012 23:55 15,1 C 94 % 0,0 l/m 0,5 km/h (0 Bft) N 360 14,1 C 15,2 C 1,9 km/h (1 Bft)
_ Min-Zeit 23:55 11:43 - 23:33 - - 16:28 16:28 23:43
Minimum _ 15,1 C 64 % - 0,0 km/h (0 Bft) - - 14,0 C 11,9 C 0,0 km/h (0 Bft)
_ Max-Zeit 11:38 23:55 16:23 16:23 - - 07:38 11:38 16:18
Maximum _ 26,0 C 94 % 5,5 l/m 15,6 km/h
O-SO (3 Bft)
- - 19,6 C 28,5 C 25,9 km/h
S (4 Bft)
Durchschnitt _ 18,8 C 86 % #9,6 l/m 1,9 km/h (1 Bft) SO - 16,3 C 19,4 C 2,4 km/h (1 Bft)